Time;durP1;ratioP1;P1;durP2;ratioP2;P2;SDS_P1;SDS_P2;PMS_P1;PMS_P2;Temp;Humidity;BMP_temperature;BMP_pressure;BME280_temperature;BME280_humidity;BME280_pressure;Samples;Min_cycle;Max_cycle;Signal;HPM_P1;HPM_P2
2023/06/15 00:02:20;;;;;;;2.55;1.20;;;19.70;76.80;;;;;;5076549;28;20383;-86
2023/06/15 00:04:46;;;;;;;1.90;1.23;;;19.70;76.80;;;;;;5077488;28;20112;-86
2023/06/15 00:07:12;;;;;;;2.78;1.42;;;19.60;76.70;;;;;;5079046;28;20071;-85
2023/06/15 00:09:37;;;;;;;1.92;1.30;;;19.60;76.80;;;;;;5078053;28;20112;-86
2023/06/15 00:12:03;;;;;;;2.08;1.33;;;19.60;76.80;;;;;;5077742;28;20028;-85
2023/06/15 00:14:28;;;;;;;2.15;1.30;;;19.60;76.90;;;;;;5075770;28;20039;-86
2023/06/15 00:16:54;;;;;;;2.25;1.52;;;19.50;77.00;;;;;;5060785;28;20032;-89
2023/06/15 00:19:20;;;;;;;2.13;1.20;;;19.50;77.10;;;;;;5062642;28;20028;-85
2023/06/15 00:21:48;;;;;;;3.17;1.50;;;19.50;77.30;;;;;;5076661;28;20025;-83
2023/06/15 00:24:14;;;;;;;3.53;1.58;;;19.40;77.30;;;;;;5076636;28;20077;-88
2023/06/15 00:26:41;;;;;;;4.68;1.55;;;19.40;77.50;;;;;;5078171;28;20036;-86
2023/06/15 00:29:06;;;;;;;2.60;1.60;;;19.40;77.70;;;;;;5063353;28;20430;-88
2023/06/15 00:31:33;;;;;;;3.38;1.63;;;19.40;77.90;;;;;;5076465;28;20037;-87
2023/06/15 00:33:59;;;;;;;3.03;1.42;;;19.30;78.00;;;;;;5078005;28;20019;-87
2023/06/15 00:36:24;;;;;;;2.55;1.45;;;19.30;78.30;;;;;;5075720;28;20561;-84
2023/06/15 00:38:50;;;;;;;2.47;1.45;;;19.20;78.40;;;;;;5076450;28;20029;-86
2023/06/15 00:41:16;;;;;;;3.42;1.40;;;19.20;79.20;;;;;;5077755;28;20086;-87
2023/06/15 00:43:41;;;;;;;2.33;1.60;;;19.20;78.70;;;;;;5078192;28;20523;-87
2023/06/15 00:46:07;;;;;;;3.08;1.48;;;19.20;78.80;;;;;;5076707;28;20417;-85
2023/06/15 00:48:33;;;;;;;2.95;1.98;;;19.20;79.00;;;;;;5075594;28;20036;-87
2023/06/15 00:50:59;;;;;;;3.60;1.80;;;19.10;79.20;;;;;;5076913;28;20085;-86
2023/06/15 00:53:25;;;;;;;3.72;1.95;;;19.10;79.40;;;;;;5077744;28;20032;-87
2023/06/15 00:55:52;;;;;;;4.35;1.98;;;19.10;79.60;;;;;;5079312;28;20081;-86
2023/06/15 00:58:19;;;;;;;4.10;1.70;;;19.10;79.80;;;;;;5077112;28;20044;-86
2023/06/15 01:00:48;;;;;;;3.50;1.67;;;19.10;80.00;;;;;;5081803;28;20536;-82
2023/06/15 01:03:15;;;;;;;3.42;1.77;;;19.00;80.20;;;;;;5076726;28;20055;-88
2023/06/15 01:05:44;;;;;;;2.78;1.67;;;19.00;80.50;;;;;;5074484;28;20089;-85
2023/06/15 01:08:11;;;;;;;2.33;1.70;;;18.90;80.70;;;;;;5062387;28;20131;-86
2023/06/15 01:10:37;;;;;;;4.68;1.85;;;18.90;80.80;;;;;;5076797;28;20036;-85
2023/06/15 01:13:05;;;;;;;2.65;1.65;;;18.90;81.00;;;;;;5076358;28;20111;-89
2023/06/15 01:15:31;;;;;;;3.00;1.70;;;18.80;81.20;;;;;;5076505;28;20028;-87
2023/06/15 01:18:02;;;;;;;2.92;1.75;;;18.90;81.40;;;;;;5073388;28;20023;-85
2023/06/15 01:20:38;;;;;;;2.08;1.60;;;18.80;81.70;;;;;;5076165;28;20020;-86
2023/06/15 01:23:22;;;;;;;4.05;2.05;;;18.80;81.90;;;;;;5075661;28;20067;-87
2023/06/15 01:26:06;;;;;;;3.15;2.15;;;18.70;82.00;;;;;;5078882;28;20033;-85
2023/06/15 01:28:33;;;;;;;2.30;1.50;;;18.80;82.30;;;;;;5079822;28;20036;-86
2023/06/15 01:30:59;;;;;;;6.38;1.83;;;18.70;82.40;;;;;;5078361;28;20024;-87
2023/06/15 01:33:25;;;;;;;2.85;1.67;;;18.70;82.50;;;;;;5077198;28;20074;-88
2023/06/15 01:35:51;;;;;;;4.30;1.90;;;18.70;82.80;;;;;;5078391;28;20027;-85
2023/06/15 01:38:23;;;;;;;5.00;2.00;;;18.70;83.00;;;;;;5078379;28;20024;-87
2023/06/15 01:40:50;;;;;;;3.08;1.80;;;18.70;83.30;;;;;;5078819;28;20028;-85
2023/06/15 01:43:23;;;;;;;4.00;2.15;;;18.60;83.50;;;;;;5079943;28;20013;-88
2023/06/15 01:45:51;;;;;;;3.17;1.98;;;18.60;83.80;;;;;;5077998;28;20324;-88
2023/06/15 01:48:18;;;;;;;5.63;2.35;;;18.60;83.80;;;;;;5077141;28;20505;-88
2023/06/15 01:50:44;;;;;;;5.88;2.72;;;18.60;84.10;;;;;;5079049;28;20016;-87
2023/06/15 01:53:10;;;;;;;3.10;2.03;;;18.50;84.30;;;;;;5078687;28;20051;-87
2023/06/15 01:55:35;;;;;;;2.88;1.92;;;18.50;84.40;;;;;;5080266;28;20512;-88
2023/06/15 01:58:01;;;;;;;2.78;1.95;;;18.50;84.60;;;;;;5077345;28;20043;-88
2023/06/15 02:00:28;;;;;;;4.95;1.80;;;18.50;84.90;;;;;;5077746;28;20248;-85
2023/06/15 02:02:54;;;;;;;4.40;1.98;;;18.40;85.10;;;;;;5064843;28;20051;-88
2023/06/15 02:05:19;;;;;;;3.33;1.80;;;18.40;85.40;;;;;;5079423;28;20591;-88
2023/06/15 02:07:45;;;;;;;4.07;1.85;;;18.40;85.50;;;;;;5080276;28;20058;-86
2023/06/15 02:10:11;;;;;;;3.47;2.00;;;18.30;85.70;;;;;;5076053;28;20103;-87
2023/06/15 02:12:36;;;;;;;4.32;2.25;;;18.30;85.80;;;;;;5079878;28;20042;-89
2023/06/15 02:15:03;;;;;;;3.00;2.03;;;18.30;86.00;;;;;;5080687;28;20020;-87
2023/06/15 02:17:38;;;;;;;4.18;1.90;;;18.30;86.10;;;;;;5077488;28;20107;-87
2023/06/15 02:20:08;;;;;;;2.90;1.90;;;18.20;86.30;;;;;;5066242;28;20046;-86
2023/06/15 02:22:34;;;;;;;4.30;2.20;;;18.20;86.50;;;;;;5080403;28;20065;-85
2023/06/15 02:24:59;;;;;;;3.67;2.35;;;18.20;86.60;;;;;;5077446;28;20024;-87
2023/06/15 02:27:25;;;;;;;3.90;2.00;;;18.20;86.70;;;;;;5075165;28;20097;-85
2023/06/15 02:29:51;;;;;;;3.40;1.92;;;18.10;86.80;;;;;;5073860;28;20107;-86
2023/06/15 02:32:30;;;;;;;3.40;1.88;;;18.10;87.00;;;;;;5072930;28;20016;-86
2023/06/15 02:34:56;;;;;;;3.45;1.75;;;18.10;87.30;;;;;;5072953;28;20032;-84
2023/06/15 02:37:21;;;;;;;4.28;2.50;;;18.00;87.50;;;;;;5074815;28;20524;-88
2023/06/15 02:39:47;;;;;;;3.20;1.90;;;18.00;87.60;;;;;;5074385;28;20531;-88
2023/06/15 02:42:13;;;;;;;2.97;2.08;;;18.00;87.80;;;;;;5077621;28;20055;-87
2023/06/15 02:44:38;;;;;;;3.00;1.85;;;17.90;87.90;;;;;;5076746;28;20023;-86
2023/06/15 02:47:05;;;;;;;4.25;1.90;;;17.90;88.10;;;;;;5077220;28;20117;-85
2023/06/15 02:49:30;;;;;;;4.15;1.90;;;17.90;88.30;;;;;;5078115;28;20576;-87
2023/06/15 02:51:56;;;;;;;3.20;1.88;;;17.90;88.50;;;;;;5078854;28;20039;-86
2023/06/15 02:54:23;;;;;;;3.85;2.40;;;17.80;88.60;;;;;;5067834;28;20028;-87
2023/06/15 02:56:51;;;;;;;4.53;1.92;;;17.80;88.80;;;;;;5077564;28;20028;-86
2023/06/15 02:59:17;;;;;;;4.75;2.42;;;17.80;88.90;;;;;;5079257;28;20027;-88
2023/06/15 03:01:43;;;;;;;3.67;2.00;;;17.80;89.10;;;;;;5067488;28;20462;-86
2023/06/15 03:04:09;;;;;;;3.88;2.00;;;17.80;89.20;;;;;;5081115;28;20043;-87
2023/06/15 03:06:36;;;;;;;3.40;1.88;;;17.70;89.30;;;;;;5083863;28;20189;-86
2023/06/15 03:09:03;;;;;;;4.60;2.40;;;17.70;89.40;;;;;;5083785;28;20474;-88
2023/06/15 03:11:28;;;;;;;3.65;2.05;;;17.60;89.50;;;;;;5080508;28;20032;-85
2023/06/15 03:13:54;;;;;;;3.78;2.10;;;17.60;89.70;;;;;;5082200;28;20067;-87
2023/06/15 03:16:20;;;;;;;3.38;2.10;;;17.60;89.80;;;;;;5080334;28;20020;-88
2023/06/15 03:18:47;;;;;;;3.58;1.73;;;17.60;89.90;;;;;;5069323;28;20390;-87
2023/06/15 03:21:14;;;;;;;4.95;1.98;;;17.50;90.00;;;;;;5084429;28;20044;-88
2023/06/15 03:23:41;;;;;;;3.88;2.15;;;17.50;90.10;;;;;;5081691;28;20047;-87
2023/06/15 03:26:07;;;;;;;3.55;2.10;;;17.50;90.20;;;;;;5081988;28;20206;-88
2023/06/15 03:28:37;;;;;;;3.40;2.22;;;17.50;90.20;;;;;;5084392;28;20164;-86
2023/06/15 03:31:05;;;;;;;2.95;1.92;;;17.40;90.30;;;;;;5079228;28;20035;-86
2023/06/15 03:33:31;;;;;;;4.55;2.30;;;17.40;90.30;;;;;;5081155;28;20020;-86
2023/06/15 03:35:57;;;;;;;3.50;2.13;;;17.40;90.40;;;;;;5080490;28;20497;-87
2023/06/15 03:38:23;;;;;;;3.38;1.98;;;17.40;90.40;;;;;;5083258;28;20024;-87
2023/06/15 03:40:49;;;;;;;5.55;2.30;;;17.40;90.40;;;;;;5081984;28;20024;-86
2023/06/15 03:43:15;;;;;;;3.22;2.00;;;17.40;90.50;;;;;;5082760;28;20032;-88
2023/06/15 03:45:40;;;;;;;4.20;2.30;;;17.40;90.50;;;;;;5080822;28;20024;-87
2023/06/15 03:48:06;;;;;;;4.43;2.35;;;17.30;90.50;;;;;;5079843;28;20032;-86
2023/06/15 03:50:32;;;;;;;3.38;2.05;;;17.40;90.60;;;;;;5080734;28;20434;-88
2023/06/15 03:52:58;;;;;;;4.00;1.90;;;17.30;90.60;;;;;;5081142;28;20038;-87
2023/06/15 03:55:25;;;;;;;5.15;2.13;;;17.40;90.60;;;;;;5070506;28;20020;-88
2023/06/15 03:57:50;;;;;;;3.20;2.00;;;17.40;90.60;;;;;;5082360;28;20107;-87
2023/06/15 04:00:16;;;;;;;3.15;1.88;;;17.40;90.70;;;;;;5081258;28;20100;-87
2023/06/15 04:02:42;;;;;;;4.38;2.00;;;17.40;90.70;;;;;;5079469;28;20027;-85
2023/06/15 04:05:09;;;;;;;3.58;2.20;;;17.40;90.70;;;;;;5081574;28;20021;-86
2023/06/15 04:07:35;;;;;;;5.15;2.20;;;17.40;90.70;;;;;;5082792;28;20085;-87
2023/06/15 04:10:01;;;;;;;5.07;2.25;;;17.40;90.80;;;;;;5080431;28;20016;-88
2023/06/15 04:12:26;;;;;;;3.15;2.22;;;17.30;90.80;;;;;;5084553;28;20106;-86
2023/06/15 04:14:52;;;;;;;3.05;2.05;;;17.30;90.90;;;;;;5082163;28;20059;-88
2023/06/15 04:17:18;;;;;;;3.03;2.00;;;17.30;90.90;;;;;;5081108;28;20043;-88
2023/06/15 04:19:44;;;;;;;3.42;1.98;;;17.40;90.90;;;;;;5079777;28;20020;-87
2023/06/15 04:22:10;;;;;;;3.63;2.20;;;17.40;90.90;;;;;;5077613;28;20028;-88
2023/06/15 04:24:36;;;;;;;3.10;2.08;;;17.40;91.00;;;;;;5076823;28;20038;-86
2023/06/15 04:27:01;;;;;;;5.15;2.15;;;17.40;90.90;;;;;;5076329;28;20040;-88
2023/06/15 04:29:30;;;;;;;5.28;2.08;;;17.40;90.90;;;;;;5076999;28;20028;-84
2023/06/15 04:31:57;;;;;;;2.95;1.98;;;17.50;90.90;;;;;;5074980;28;20028;-83
2023/06/15 04:34:24;;;;;;;3.90;2.13;;;17.50;90.80;;;;;;5075971;28;20434;-82
2023/06/15 04:36:50;;;;;;;4.43;2.03;;;17.60;91.10;;;;;;5065285;28;20032;-86
2023/06/15 04:39:15;;;;;;;4.82;1.88;;;17.60;90.80;;;;;;5079905;28;20099;-86
2023/06/15 04:41:42;;;;;;;4.18;1.88;;;17.60;90.70;;;;;;5075247;28;20032;-86
2023/06/15 04:44:08;;;;;;;3.47;2.05;;;17.70;90.70;;;;;;5076244;28;20599;-86
2023/06/15 04:46:38;;;;;;;2.55;1.85;;;17.70;90.70;;;;;;5077382;28;20048;-87
2023/06/15 04:49:03;;;;;;;4.97;2.15;;;17.70;90.70;;;;;;5065778;28;20746;-86
2023/06/15 04:51:30;;;;;;;3.35;2.00;;;17.80;90.70;;;;;;5077511;28;20042;-86
2023/06/15 04:53:56;;;;;;;4.20;2.13;;;17.80;90.70;;;;;;5074952;28;20024;-85
2023/06/15 04:56:22;;;;;;;3.50;2.05;;;17.90;90.70;;;;;;5060125;28;20047;-86
2023/06/15 04:58:48;;;;;;;5.95;2.42;;;17.90;90.60;;;;;;5074201;28;20116;-85
2023/06/15 05:01:14;;;;;;;3.22;1.98;;;18.00;90.60;;;;;;5059205;28;20028;-85
2023/06/15 05:03:40;;;;;;;3.13;2.30;;;18.00;90.60;;;;;;5058608;28;20029;-86
2023/06/15 05:06:05;;;;;;;4.10;2.15;;;18.00;90.60;;;;;;5062441;28;20676;-86
2023/06/15 05:08:33;;;;;;;4.25;2.08;;;18.10;90.60;;;;;;5061435;28;20028;-84
2023/06/15 05:10:58;;;;;;;2.85;1.90;;;18.20;90.50;;;;;;5072597;28;20020;-86
2023/06/15 05:13:25;;;;;;;3.55;1.85;;;18.20;90.50;;;;;;5059587;28;20028;-86
2023/06/15 05:15:51;;;;;;;2.88;1.98;;;18.20;90.40;;;;;;5058806;28;20020;-86
2023/06/15 05:18:17;;;;;;;4.82;2.63;;;18.30;90.40;;;;;;5059187;28;20071;-85
2023/06/15 05:20:42;;;;;;;3.83;1.83;;;18.30;90.40;;;;;;5076324;28;20177;-86
2023/06/15 05:23:08;;;;;;;4.15;2.15;;;18.30;90.30;;;;;;5062483;28;20051;-85
2023/06/15 05:25:33;;;;;;;3.72;2.20;;;18.40;90.30;;;;;;5075117;28;20027;-84
2023/06/15 05:27:59;;;;;;;3.53;2.22;;;18.40;90.30;;;;;;5073501;28;20036;-84
2023/06/15 05:30:26;;;;;;;4.15;2.05;;;18.50;90.30;;;;;;5076040;28;20024;-84
2023/06/15 05:32:52;;;;;;;4.82;2.28;;;18.50;90.20;;;;;;5075036;28;20020;-84
2023/06/15 05:35:18;;;;;;;4.45;2.40;;;18.50;90.20;;;;;;5074835;28;20063;-86
2023/06/15 05:37:45;;;;;;;3.83;1.92;;;18.60;90.20;;;;;;5075989;28;20615;-85
2023/06/15 05:40:11;;;;;;;3.78;2.00;;;18.70;90.20;;;;;;5059075;28;20658;-84
2023/06/15 05:42:37;;;;;;;3.30;1.88;;;18.70;90.10;;;;;;5075057;28;20025;-84
2023/06/15 05:45:03;;;;;;;3.63;2.00;;;18.80;90.10;;;;;;5064449;28;20533;-84
2023/06/15 05:47:28;;;;;;;3.20;2.17;;;18.80;90.00;;;;;;5075029;28;20493;-84
2023/06/15 05:49:54;;;;;;;3.00;2.00;;;18.90;90.00;;;;;;5062746;28;20031;-85
2023/06/15 05:52:20;;;;;;;3.30;2.20;;;19.00;90.00;;;;;;5074922;28;20572;-85
2023/06/15 05:54:46;;;;;;;5.03;2.05;;;19.00;89.90;;;;;;5071194;28;20090;-84
2023/06/15 05:57:12;;;;;;;5.30;2.30;;;19.10;89.70;;;;;;5062577;28;20489;-84
2023/06/15 05:59:38;;;;;;;3.35;2.38;;;19.10;89.60;;;;;;5075628;28;20116;-84
2023/06/15 06:02:04;;;;;;;4.35;2.38;;;19.20;89.50;;;;;;5072516;28;20027;-84
2023/06/15 06:04:30;;;;;;;4.72;2.08;;;19.20;89.30;;;;;;5058379;28;20024;-83
2023/06/15 06:06:55;;;;;;;3.90;2.17;;;19.30;89.30;;;;;;5073943;28;20125;-84
2023/06/15 06:09:21;;;;;;;5.05;2.42;;;19.30;89.10;;;;;;5071801;28;20039;-83
2023/06/15 06:11:49;;;;;;;4.13;2.42;;;19.40;89.00;;;;;;5056358;28;20028;-83
2023/06/15 06:14:15;;;;;;;6.18;2.35;;;19.50;88.90;;;;;;5072522;28;20147;-83
2023/06/15 06:16:42;;;;;;;3.85;2.30;;;19.50;88.80;;;;;;5073668;28;20058;-88
2023/06/15 06:19:08;;;;;;;3.10;2.15;;;19.60;88.80;;;;;;5075181;28;20036;-85
2023/06/15 06:21:33;;;;;;;3.55;2.40;;;19.60;88.80;;;;;;5074318;28;20055;-85
2023/06/15 06:23:59;;;;;;;4.05;2.10;;;19.70;88.70;;;;;;5071610;28;20113;-85
2023/06/15 06:26:25;;;;;;;3.42;2.30;;;19.70;88.50;;;;;;5072419;28;20124;-85
2023/06/15 06:28:51;;;;;;;5.13;2.60;;;19.80;88.40;;;;;;5072073;28;20102;-85
2023/06/15 06:31:17;;;;;;;4.03;2.13;;;19.90;88.30;;;;;;5072927;28;20048;-84
2023/06/15 06:33:42;;;;;;;3.92;2.45;;;19.90;88.00;;;;;;5072574;28;20020;-85
2023/06/15 06:36:08;;;;;;;5.05;1.98;;;20.00;87.90;;;;;;5072683;28;20421;-84
2023/06/15 06:38:34;;;;;;;3.50;2.20;;;20.10;87.90;;;;;;5073158;28;20028;-85
2023/06/15 06:41:00;;;;;;;3.65;2.10;;;20.10;87.60;;;;;;5062531;28;20102;-84
2023/06/15 06:43:26;;;;;;;3.28;2.00;;;20.20;87.60;;;;;;5077394;28;20111;-82
2023/06/15 06:45:51;;;;;;;3.03;2.08;;;20.30;87.50;;;;;;5059757;28;20059;-84
2023/06/15 06:48:17;;;;;;;3.60;2.22;;;20.20;87.30;;;;;;5077175;28;20424;-84
2023/06/15 06:50:43;;;;;;;3.22;2.08;;;20.20;87.30;;;;;;5075751;28;20065;-84
2023/06/15 06:53:09;;;;;;;3.25;1.83;;;20.40;87.40;;;;;;5062858;28;20025;-84
2023/06/15 06:55:35;;;;;;;3.70;2.17;;;20.40;87.10;;;;;;5072589;28;20028;-84
2023/06/15 06:58:01;;;;;;;4.80;2.42;;;20.40;87.00;;;;;;5073131;28;20024;-84
2023/06/15 07:00:30;;;;;;;3.35;1.75;;;20.40;86.80;;;;;;5073675;28;20390;-83
2023/06/15 07:02:57;;;;;;;3.72;2.17;;;20.50;86.60;;;;;;5073461;28;20478;-85
2023/06/15 07:05:22;;;;;;;3.97;2.25;;;20.50;86.60;;;;;;5074180;28;20544;-84
2023/06/15 07:07:48;;;;;;;3.90;2.33;;;20.50;86.50;;;;;;5072338;28;20040;-84
2023/06/15 07:10:14;;;;;;;3.95;2.40;;;20.60;86.40;;;;;;5072833;28;20194;-84
2023/06/15 07:12:40;;;;;;;4.68;2.03;;;20.60;86.40;;;;;;5071783;28;20033;-83
2023/06/15 07:15:06;;;;;;;3.25;2.05;;;20.70;86.40;;;;;;5061649;28;20027;-82
2023/06/15 07:17:32;;;;;;;4.88;2.38;;;20.70;86.30;;;;;;5072390;28;20111;-82
2023/06/15 07:19:58;;;;;;;4.13;2.10;;;20.80;86.10;;;;;;5073214;28;20108;-83
2023/06/15 07:22:23;;;;;;;3.85;2.05;;;20.80;85.90;;;;;;5071219;28;20051;-83
2023/06/15 07:24:50;;;;;;;3.15;2.00;;;20.80;85.80;;;;;;5071844;28;20024;-84
2023/06/15 07:27:16;;;;;;;3.22;2.00;;;20.90;85.60;;;;;;5059336;28;20032;-84
2023/06/15 07:29:41;;;;;;;7.78;2.45;;;21.00;85.60;;;;;;5075309;28;20678;-83
2023/06/15 07:32:07;;;;;;;3.40;2.05;;;21.00;85.40;;;;;;5077584;28;20043;-84
2023/06/15 07:34:33;;;;;;;2.80;1.80;;;21.10;85.20;;;;;;5076875;28;20615;-83
2023/06/15 07:36:58;;;;;;;3.63;1.80;;;21.10;85.20;;;;;;5075563;28;20024;-84
2023/06/15 07:39:24;;;;;;;2.63;1.88;;;21.20;85.00;;;;;;5076447;28;20460;-84
2023/06/15 07:41:49;;;;;;;3.63;2.10;;;21.30;85.00;;;;;;5063480;28;20031;-84
2023/06/15 07:44:15;;;;;;;4.18;2.10;;;21.40;84.80;;;;;;5075250;28;20020;-84
2023/06/15 07:46:41;;;;;;;5.65;1.98;;;21.50;84.50;;;;;;5062568;28;20035;-85
2023/06/15 07:49:07;;;;;;;3.42;1.95;;;21.50;84.30;;;;;;5076950;28;20417;-84
2023/06/15 07:51:34;;;;;;;3.72;2.03;;;21.60;84.20;;;;;;5066500;28;20111;-83
2023/06/15 07:53:59;;;;;;;5.30;2.13;;;21.70;83.90;;;;;;5069377;28;20138;-85
2023/06/15 07:56:25;;;;;;;2.22;1.50;;;21.80;83.70;;;;;;5065454;28;22389;-83
2023/06/15 07:58:51;;;;;;;3.85;2.20;;;21.90;83.50;;;;;;5059062;28;20457;-83
2023/06/15 08:01:16;;;;;;;4.38;2.10;;;21.90;83.30;;;;;;5075346;28;20028;-83
2023/06/15 08:03:42;;;;;;;2.63;1.85;;;22.00;83.20;;;;;;5063472;28;20351;-82
2023/06/15 08:06:08;;;;;;;2.55;1.55;;;22.10;83.00;;;;;;5058687;28;20630;-82
2023/06/15 08:08:33;;;;;;;2.72;1.80;;;22.10;82.80;;;;;;5074675;28;20156;-82
2023/06/15 08:11:00;;;;;;;2.50;1.63;;;22.20;82.50;;;;;;5065510;28;20114;-83
2023/06/15 08:13:26;;;;;;;3.70;2.10;;;22.20;82.30;;;;;;5058061;28;20066;-83
2023/06/15 08:15:52;;;;;;;3.03;1.75;;;22.30;82.10;;;;;;5071147;28;20249;-82
2023/06/15 08:18:17;;;;;;;2.97;1.70;;;22.40;81.80;;;;;;5076398;28;20032;-81
2023/06/15 08:20:43;;;;;;;2.92;1.90;;;22.50;81.60;;;;;;5075117;28;20039;-82
2023/06/15 08:23:10;;;;;;;3.42;1.75;;;22.60;81.30;;;;;;5074484;28;20052;-83
2023/06/15 08:25:35;;;;;;;4.65;1.90;;;22.60;81.00;;;;;;5058479;28;20035;-81
2023/06/15 08:28:02;;;;;;;3.55;2.30;;;22.80;80.80;;;;;;5063913;28;20043;-81
2023/06/15 08:30:28;;;;;;;2.50;2.00;;;22.90;80.30;;;;;;5063245;28;20024;-81
2023/06/15 08:32:53;;;;;;;4.25;1.95;;;22.90;80.00;;;;;;5066787;28;20036;-82
2023/06/15 08:35:19;;;;;;;3.22;1.90;;;23.00;79.70;;;;;;5060517;28;20028;-82
2023/06/15 08:37:45;;;;;;;3.72;2.08;;;23.10;79.70;;;;;;5062583;28;20327;-81
2023/06/15 08:40:11;;;;;;;3.65;2.00;;;23.10;79.50;;;;;;5058718;28;20044;-81
2023/06/15 08:42:38;;;;;;;2.83;1.90;;;23.30;79.40;;;;;;5065110;28;20024;-81
2023/06/15 08:45:05;;;;;;;2.95;1.50;;;23.30;79.20;;;;;;5074025;28;20016;-82
2023/06/15 08:47:33;;;;;;;5.05;1.95;;;23.40;78.90;;;;;;5059410;28;20036;-81
2023/06/15 08:50:04;;;;;;;3.97;2.13;;;23.50;78.60;;;;;;5074775;28;20016;-81
2023/06/15 08:52:35;;;;;;;2.88;1.55;;;23.60;78.20;;;;;;5059785;28;20123;-81
2023/06/15 08:55:02;;;;;;;2.85;1.75;;;23.80;78.10;;;;;;5057897;28;20382;-80
2023/06/15 08:57:28;;;;;;;2.63;1.73;;;23.90;77.60;;;;;;5074455;28;20043;-82
2023/06/15 08:59:55;;;;;;;4.80;1.90;;;24.10;77.40;;;;;;5059591;28;20029;-80
2023/06/15 09:02:22;;;;;;;3.17;2.10;;;24.30;77.00;;;;;;5062981;28;20441;-78
2023/06/15 09:04:51;;;;;;;4.40;1.80;;;24.30;76.50;;;;;;5075749;28;20291;-79
2023/06/15 09:07:18;;;;;;;4.72;1.80;;;24.50;76.20;;;;;;5062621;28;20394;-81
2023/06/15 09:10:11;;;;;;;4.18;1.80;;;24.70;75.80;;;;;;5057211;28;20070;-79
2023/06/15 09:12:50;;;;;;;2.50;1.70;;;24.80;75.60;;;;;;5071724;28;20032;-79
2023/06/15 09:15:20;;;;;;;2.35;1.58;;;25.00;75.20;;;;;;5058248;28;20094;-80
2023/06/15 09:17:48;;;;;;;4.00;2.13;;;25.00;75.20;;;;;;5058931;28;20056;-79
2023/06/15 09:20:14;;;;;;;3.83;1.67;;;25.20;74.30;;;;;;5075196;28;20020;-80
2023/06/15 09:22:42;;;;;;;3.30;1.90;;;25.40;73.90;;;;;;5062944;28;20079;-80
2023/06/15 09:25:14;;;;;;;3.05;2.25;;;25.50;73.50;;;;;;5073379;28;20165;-83
2023/06/15 09:27:39;;;;;;;2.67;1.80;;;25.60;72.80;;;;;;5049985;28;20044;-83
2023/06/15 09:30:07;;;;;;;2.58;1.90;;;25.80;72.80;;;;;;5073982;28;20554;-80
2023/06/15 09:32:33;;;;;;;3.08;1.70;;;26.00;72.60;;;;;;5062492;28;20115;-82
2023/06/15 09:34:59;;;;;;;1.92;1.40;;;26.90;72.60;;;;;;5064143;28;20111;-83
2023/06/15 09:37:28;;;;;;;2.58;2.03;;;28.20;71.80;;;;;;5063214;28;20040;-81
2023/06/15 09:39:54;;;;;;;3.88;1.80;;;29.40;70.50;;;;;;5062957;28;20024;-82
2023/06/15 09:42:27;;;;;;;4.43;1.85;;;30.40;68.80;;;;;;5063091;28;20397;-83
2023/06/15 09:44:59;;;;;;;;;;;31.00;67.50;;;;;;5073599;28;20036;-83
2023/06/15 09:47:31;;;;;;;2.78;1.70;;;31.30;66.20;;;;;;5075781;28;19920;-86
2023/06/15 09:49:58;;;;;;;3.22;1.85;;;31.50;66.00;;;;;;5056786;28;20103;-85
2023/06/15 09:52:24;;;;;;;6.05;1.92;;;31.80;65.10;;;;;;5072209;28;20028;-82
2023/06/15 09:54:51;;;;;;;4.95;2.10;;;32.20;64.20;;;;;;5066455;28;20028;-82
2023/06/15 09:57:19;;;;;;;4.07;1.50;;;32.60;64.00;;;;;;5075002;28;20040;-84
2023/06/15 09:59:48;;;;;;;3.83;2.05;;;33.00;63.20;;;;;;5062843;28;20780;-83
2023/06/15 10:02:16;;;;;;;3.70;1.98;;;32.70;63.00;;;;;;5075512;28;20133;-85
2023/06/15 10:04:45;;;;;;;3.03;1.77;;;33.00;63.10;;;;;;5062116;28;20191;-82
2023/06/15 10:07:12;;;;;;;3.95;2.00;;;33.00;62.70;;;;;;5076014;28;20044;-82
2023/06/15 10:09:44;;;;;;;2.95;1.90;;;33.20;62.50;;;;;;5072655;28;20043;-84
2023/06/15 10:12:14;;;;;;;3.75;1.63;;;33.40;61.90;;;;;;5073501;28;20035;-82
2023/06/15 10:14:49;;;;;;;2.53;1.23;;;33.40;62.10;;;;;;5073545;28;20170;-84
2023/06/15 10:17:16;;;;;;;3.72;1.70;;;32.90;62.30;;;;;;5058026;28;20032;-80
2023/06/15 10:19:46;;;;;;;2.83;1.77;;;32.40;62.70;;;;;;5058727;28;20020;-81
2023/06/15 10:22:18;;;;;;;4.68;1.58;;;32.60;62.40;;;;;;5054109;28;20024;-80
2023/06/15 10:24:45;;;;;;;1.40;1.17;;;32.90;62.30;;;;;;5058599;28;20700;-81
2023/06/15 10:27:11;;;;;;;2.63;1.60;;;33.00;62.10;;;;;;5059015;28;20580;-81
2023/06/15 10:29:40;;;;;;;3.25;1.70;;;32.90;61.90;;;;;;5060344;28;20060;-82
2023/06/15 10:32:18;;;;;;;2.72;1.60;;;32.60;62.00;;;;;;5059491;28;20407;-81
2023/06/15 10:34:57;;;;;;;2.92;1.67;;;32.30;62.20;;;;;;5059311;28;20054;-80
2023/06/15 10:37:55;;;;;;;2.67;1.75;;;31.60;63.00;;;;;;5057247;28;20549;-81
2023/06/15 10:40:38;;;;;;;4.10;1.73;;;30.90;62.80;;;;;;5057124;28;20036;-80
2023/06/15 10:43:04;;;;;;;3.08;1.92;;;30.00;63.40;;;;;;5058535;28;20032;-80
2023/06/15 10:45:34;;;;;;;2.72;1.83;;;29.40;63.60;;;;;;5072682;28;20779;-81
2023/06/15 10:48:03;;;;;;;2.38;1.75;;;29.00;64.20;;;;;;5056899;28;20031;-79
2023/06/15 10:50:43;;;;;;;3.45;1.80;;;29.50;64.40;;;;;;5073298;28;20032;-81
2023/06/15 10:53:42;;;;;;;2.30;1.58;;;30.80;63.70;;;;;;5064459;28;20510;-81
2023/06/15 10:56:16;;;;;;;2.95;1.70;;;32.10;62.30;;;;;;5053815;28;20041;-81
2023/06/15 10:58:52;;;;;;;1.90;1.20;;;33.00;61.50;;;;;;5071418;28;20054;-80
2023/06/15 11:01:24;;;;;;;2.03;1.42;;;33.40;60.80;;;;;;5062620;28;20426;-81
2023/06/15 11:03:50;;;;;;;1.73;1.38;;;33.10;60.90;;;;;;5061976;28;20028;-81
2023/06/15 11:06:21;;;;;;;2.55;1.40;;;32.60;61.00;;;;;;5060971;28;20042;-80
2023/06/15 11:08:52;;;;;;;2.47;1.60;;;32.70;61.20;;;;;;5061396;28;20062;-81
2023/06/15 11:11:30;;;;;;;3.97;1.70;;;33.30;60.60;;;;;;5077036;28;20033;-81
2023/06/15 11:14:00;;;;;;;3.45;1.67;;;33.80;60.00;;;;;;5065459;28;20020;-80
2023/06/15 11:16:31;;;;;;;2.75;1.85;;;34.40;59.40;;;;;;5059717;28;20382;-81
2023/06/15 11:18:59;;;;;;;2.33;1.80;;;34.90;59.10;;;;;;5059843;28;20028;-80
2023/06/15 11:21:28;;;;;;;2.22;1.80;;;35.30;58.50;;;;;;5076560;28;20020;-81
2023/06/15 11:23:56;;;;;;;2.60;1.70;;;35.60;57.70;;;;;;5064530;28;20095;-80
2023/06/15 11:26:22;;;;;;;2.92;1.60;;;35.80;57.70;;;;;;5072213;28;20934;-82
2023/06/15 11:28:48;;;;;;;3.45;1.50;;;36.10;57.40;;;;;;5075247;28;20031;-78
2023/06/15 11:31:16;;;;;;;2.30;1.40;;;36.30;57.00;;;;;;5061688;28;20048;-80
2023/06/15 11:33:42;;;;;;;4.55;1.48;;;36.40;56.80;;;;;;5058728;28;20024;-80
2023/06/15 11:36:10;;;;;;;3.47;1.38;;;36.80;56.50;;;;;;5062715;28;20081;-79
2023/06/15 11:38:36;;;;;;;2.45;1.42;;;36.90;56.10;;;;;;5058321;28;20029;-82
2023/06/15 11:41:10;;;;;;;2.28;1.38;;;36.10;55.90;;;;;;5063961;28;20054;-79
2023/06/15 11:43:49;;;;;;;3.53;1.50;;;36.00;56.40;;;;;;5069151;28;20103;-80
2023/06/15 11:46:20;;;;;;;3.03;1.70;;;36.10;56.20;;;;;;5061964;28;20024;-80
2023/06/15 11:48:47;;;;;;;2.47;1.40;;;36.20;55.80;;;;;;5072973;28;20012;-80
2023/06/15 11:51:16;;;;;;;3.25;1.42;;;36.10;55.60;;;;;;5059438;28;20132;-80
2023/06/15 11:53:42;;;;;;;2.17;1.80;;;35.90;55.30;;;;;;5058639;28;20027;-80
2023/06/15 11:56:12;;;;;;;3.03;1.60;;;36.10;55.30;;;;;;5070107;28;20336;-81
2023/06/15 11:58:39;;;;;;;2.83;1.65;;;36.20;55.50;;;;;;5068763;28;20043;-80
2023/06/15 12:01:05;;;;;;;2.10;1.33;;;36.50;54.80;;;;;;5058353;28;20036;-81
2023/06/15 12:03:32;;;;;;;2.13;1.42;;;36.90;54.40;;;;;;5070080;28;20493;-80
2023/06/15 12:05:58;;;;;;;3.63;1.70;;;37.30;54.30;;;;;;5053294;28;20515;-80
2023/06/15 12:08:28;;;;;;;1.52;1.20;;;37.70;53.80;;;;;;5059067;28;20032;-82
2023/06/15 12:10:56;;;;;;;2.15;1.10;;;38.10;53.60;;;;;;5072949;28;20021;-81
2023/06/15 12:13:22;;;;;;;3.40;1.40;;;38.20;53.50;;;;;;5060751;28;20055;-80
2023/06/15 12:15:48;;;;;;;3.00;1.60;;;38.30;53.10;;;;;;5064419;28;20113;-81
2023/06/15 12:18:16;;;;;;;2.60;1.35;;;38.20;53.10;;;;;;5056014;28;20123;-81
2023/06/15 12:20:43;;;;;;;2.38;1.40;;;38.00;52.80;;;;;;5073740;28;20046;-80
2023/06/15 12:23:08;;;;;;;1.98;1.33;;;37.20;53.10;;;;;;5054810;28;20135;-81
2023/06/15 12:25:44;;;;;;;2.25;1.38;;;36.90;53.00;;;;;;5059110;28;20035;-81
2023/06/15 12:28:18;;;;;;;2.95;1.30;;;36.30;52.60;;;;;;5061293;28;20171;-81
2023/06/15 12:30:48;;;;;;;1.67;1.40;;;36.10;52.90;;;;;;5057256;28;20111;-80
2023/06/15 12:33:30;;;;;;;2.88;1.40;;;36.20;52.70;;;;;;5072546;28;20481;-82
2023/06/15 12:35:59;;;;;;;1.65;1.23;;;36.40;52.30;;;;;;5057375;28;20024;-82
2023/06/15 12:38:29;;;;;;;3.20;1.58;;;36.80;52.40;;;;;;5059320;28;20043;-83
2023/06/15 12:40:56;;;;;;;2.50;1.40;;;37.30;51.90;;;;;;5054490;28;20137;-81
2023/06/15 12:43:22;;;;;;;2.15;1.42;;;37.30;51.90;;;;;;5071976;28;20036;-81
2023/06/15 12:45:48;;;;;;;1.70;1.30;;;37.10;51.80;;;;;;5061966;28;20039;-81
2023/06/15 12:48:14;;;;;;;2.22;1.33;;;36.30;51.90;;;;;;5061920;28;20566;-81
2023/06/15 12:50:40;;;;;;;2.90;1.30;;;35.50;52.80;;;;;;5054752;28;20397;-81